Time;durP1;ratioP1;P1;durP2;ratioP2;P2;SDS_P1;SDS_P2;PMS_P1;PMS_P2;Temp;Humidity;BMP_temperature;BMP_pressure;BME280_temperature;BME280_humidity;BME280_pressure;Samples;Min_cycle;Max_cycle;Signal;HPM_P1;HPM_P2
2023/12/24 00:01:12;;;;;;;5.60;3.58;;;8.00;99.90;;;;;;5004376;28;20363;-57
2023/12/24 00:03:38;;;;;;;8.43;4.20;;;8.00;99.90;;;;;;5023360;28;20030;-56
2023/12/24 00:06:05;;;;;;;5.90;3.30;;;8.00;99.90;;;;;;5042408;28;20117;-57
2023/12/24 00:08:31;;;;;;;5.13;3.30;;;8.10;99.90;;;;;;5043199;28;20075;-57
2023/12/24 00:10:57;;;;;;;6.38;3.25;;;8.00;99.90;;;;;;5041536;28;20055;-57
2023/12/24 00:13:23;;;;;;;5.28;3.20;;;8.10;99.90;;;;;;5042453;28;20079;-57
2023/12/24 00:15:49;;;;;;;5.32;3.33;;;8.00;99.90;;;;;;5045727;28;20079;-57
2023/12/24 00:18:15;;;;;;;7.93;3.10;;;8.10;99.90;;;;;;5044421;28;20016;-57
2023/12/24 00:20:40;;;;;;;8.10;3.13;;;8.00;99.90;;;;;;5024657;28;20021;-57
2023/12/24 00:23:07;;;;;;;5.38;2.70;;;8.10;99.90;;;;;;5024569;28;20171;-57
2023/12/24 00:25:35;;;;;;;4.22;2.70;;;8.10;99.90;;;;;;5042157;28;20115;-57
2023/12/24 00:28:00;;;;;;;4.60;2.70;;;8.10;99.90;;;;;;5046104;28;20017;-57
2023/12/24 00:30:27;;;;;;;3.30;2.75;;;8.10;99.90;;;;;;5043715;28;20044;-58
2023/12/24 00:32:59;;;;;;;4.82;2.50;;;8.10;99.90;;;;;;5046110;28;20071;-57
2023/12/24 00:35:26;;;;;;;6.03;2.50;;;8.10;99.90;;;;;;5043272;28;20036;-57
2023/12/24 00:37:52;;;;;;;2.95;2.40;;;8.10;99.90;;;;;;5040241;28;20028;-57
2023/12/24 00:40:18;;;;;;;5.43;2.10;;;8.10;99.90;;;;;;5044259;28;20033;-58
2023/12/24 00:42:45;;;;;;;5.75;2.20;;;8.10;99.90;;;;;;5045227;28;20052;-57
2023/12/24 00:45:12;;;;;;;2.67;2.25;;;8.10;99.90;;;;;;5027402;28;20071;-57
2023/12/24 00:47:38;;;;;;;2.47;2.08;;;8.10;99.90;;;;;;5043945;28;20097;-57
2023/12/24 00:50:06;;;;;;;4.20;2.13;;;8.10;99.90;;;;;;5040631;28;20033;-57
2023/12/24 00:52:35;;;;;;;4.97;2.20;;;8.00;99.90;;;;;;5043405;28;20017;-57
2023/12/24 00:55:01;;;;;;;5.70;2.38;;;8.10;99.90;;;;;;5046422;28;20102;-57
2023/12/24 00:57:27;;;;;;;3.85;2.33;;;8.00;99.90;;;;;;5043680;28;20165;-57
2023/12/24 00:59:52;;;;;;;4.50;2.75;;;8.10;99.90;;;;;;5046246;28;20020;-57
2023/12/24 01:02:18;;;;;;;3.63;2.55;;;8.10;99.90;;;;;;5026478;28;20029;-57
2023/12/24 01:04:44;;;;;;;4.43;2.63;;;8.00;99.90;;;;;;5045061;28;20034;-57
2023/12/24 01:07:09;;;;;;;3.70;2.70;;;8.00;99.90;;;;;;5045561;28;20116;-57
2023/12/24 01:09:38;;;;;;;4.47;2.70;;;8.00;99.90;;;;;;5044101;28;20018;-57
2023/12/24 01:12:05;;;;;;;4.03;2.60;;;8.00;99.90;;;;;;5028315;28;20099;-57
2023/12/24 01:14:31;;;;;;;3.50;2.55;;;8.00;99.90;;;;;;5042838;28;20023;-57
2023/12/24 01:16:56;;;;;;;6.80;2.63;;;8.00;99.90;;;;;;5045641;28;20398;-57
2023/12/24 01:19:25;;;;;;;4.20;2.75;;;8.00;99.90;;;;;;5041713;28;20116;-56
2023/12/24 01:21:54;;;;;;;2.55;2.17;;;8.00;99.90;;;;;;5034336;28;20470;-57
2023/12/24 01:24:19;;;;;;;3.13;2.33;;;8.00;99.90;;;;;;5026719;28;20071;-57
2023/12/24 01:26:45;;;;;;;4.38;2.53;;;8.00;99.90;;;;;;5044967;28;20029;-54
2023/12/24 01:29:11;;;;;;;4.03;2.22;;;8.00;99.90;;;;;;5045992;28;20017;-54
2023/12/24 01:31:37;;;;;;;4.85;2.22;;;8.00;99.90;;;;;;5044251;28;20021;-55
2023/12/24 01:34:03;;;;;;;4.55;2.50;;;8.00;99.90;;;;;;5040257;28;20052;-57
2023/12/24 01:36:29;;;;;;;4.95;3.22;;;8.00;99.90;;;;;;5043469;28;20017;-56
2023/12/24 01:38:54;;;;;;;4.40;2.83;;;8.00;99.90;;;;;;5046233;28;20025;-57
2023/12/24 01:41:20;;;;;;;2.92;2.15;;;8.00;99.90;;;;;;5044819;28;20032;-57
2023/12/24 01:43:46;;;;;;;5.70;3.08;;;8.00;99.90;;;;;;5045399;28;20067;-55
2023/12/24 01:46:15;;;;;;;3.67;2.72;;;8.00;99.90;;;;;;5045316;28;20017;-56
2023/12/24 01:48:41;;;;;;;4.90;2.78;;;8.00;99.90;;;;;;5045213;28;20534;-57
2023/12/24 01:51:08;;;;;;;5.97;3.10;;;8.00;99.90;;;;;;5046305;28;20051;-57
2023/12/24 01:53:33;;;;;;;4.65;3.20;;;8.00;99.90;;;;;;5032105;28;20032;-57
2023/12/24 01:56:01;;;;;;;4.47;3.10;;;8.00;99.90;;;;;;5040669;28;20029;-55
2023/12/24 01:58:29;;;;;;;7.55;3.60;;;8.00;99.90;;;;;;5043978;28;20025;-56
2023/12/24 02:00:55;;;;;;;7.18;3.95;;;8.00;99.90;;;;;;5046493;28;20122;-57
2023/12/24 02:03:21;;;;;;;8.52;4.47;;;8.00;99.90;;;;;;5026554;28;20033;-56
2023/12/24 02:05:48;;;;;;;6.47;4.10;;;8.00;99.90;;;;;;5045255;28;20021;-57
2023/12/24 02:08:14;;;;;;;7.28;3.88;;;8.00;99.90;;;;;;5045904;28;20082;-57
2023/12/24 02:10:40;;;;;;;8.32;4.18;;;8.00;99.90;;;;;;5044850;28;20084;-56
2023/12/24 02:13:06;;;;;;;9.98;4.43;;;8.00;99.90;;;;;;5046278;28;20464;-56
2023/12/24 02:15:32;;;;;;;9.15;4.10;;;8.00;99.90;;;;;;5043953;28;20032;-55
2023/12/24 02:17:59;;;;;;;8.05;4.80;;;8.00;99.90;;;;;;5045742;28;20032;-57
2023/12/24 02:20:25;;;;;;;9.25;4.15;;;7.90;99.90;;;;;;5044390;28;20056;-56
2023/12/24 02:22:52;;;;;;;6.05;3.97;;;8.00;99.90;;;;;;5033373;28;20089;-56
2023/12/24 02:25:18;;;;;;;6.10;4.13;;;8.00;99.90;;;;;;5045132;28;20036;-57
2023/12/24 02:28:01;;;;;;;10.55;5.03;;;8.00;99.90;;;;;;5045164;28;20487;-57
2023/12/24 02:30:33;;;;;;;6.40;4.90;;;7.90;99.90;;;;;;5044085;28;20087;-57
2023/12/24 02:33:01;;;;;;;6.20;4.20;;;7.90;99.90;;;;;;5019888;28;20027;-57
2023/12/24 02:35:31;;;;;;;11.35;5.90;;;7.90;99.90;;;;;;5028293;28;20026;-57
2023/12/24 02:37:57;;;;;;;9.07;5.40;;;8.00;99.90;;;;;;5006551;28;20021;-59
2023/12/24 02:40:23;;;;;;;9.77;5.47;;;7.90;99.90;;;;;;5035368;28;20041;-57
2023/12/24 02:42:48;;;;;;;9.15;6.03;;;7.90;99.90;;;;;;5042021;28;20360;-57
2023/12/24 02:45:14;;;;;;;7.68;5.43;;;8.00;99.90;;;;;;5042250;28;20021;-57
2023/12/24 02:47:39;;;;;;;9.75;6.40;;;7.90;99.90;;;;;;5042149;28;20300;-58
2023/12/24 02:50:06;;;;;;;11.15;6.28;;;7.90;99.90;;;;;;5011002;28;20036;-57
2023/12/24 02:52:31;;;;;;;8.55;6.05;;;7.90;99.90;;;;;;5034294;28;20070;-58
2023/12/24 02:54:57;;;;;;;10.13;6.20;;;7.90;99.90;;;;;;5010338;28;20116;-57
2023/12/24 02:57:23;;;;;;;11.45;6.47;;;7.90;99.90;;;;;;5034185;28;20026;-57
2023/12/24 02:59:48;;;;;;;10.02;6.57;;;8.00;99.90;;;;;;5029687;28;20026;-58
2023/12/24 03:02:14;;;;;;;8.82;6.60;;;8.00;99.90;;;;;;5031539;28;20151;-57
2023/12/24 03:04:40;;;;;;;11.57;7.15;;;8.00;99.90;;;;;;5031296;28;20021;-58
2023/12/24 03:07:05;;;;;;;15.27;6.90;;;7.90;99.90;;;;;;5027997;28;20063;-57
2023/12/24 03:09:31;;;;;;;12.27;6.97;;;7.90;99.90;;;;;;5043147;28;20482;-57
2023/12/24 03:11:57;;;;;;;10.25;5.50;;;7.90;99.90;;;;;;5046334;28;20024;-58
2023/12/24 03:14:23;;;;;;;11.48;6.65;;;7.90;99.90;;;;;;5045904;28;20017;-58
2023/12/24 03:16:48;;;;;;;10.30;6.75;;;7.90;99.90;;;;;;5038827;28;20312;-58
2023/12/24 03:19:14;;;;;;;15.85;6.07;;;7.90;99.90;;;;;;5028727;28;20044;-58
2023/12/24 03:21:43;;;;;;;11.75;5.45;;;7.90;99.90;;;;;;5027621;28;20470;-58
2023/12/24 03:24:09;;;;;;;16.17;6.32;;;7.90;99.90;;;;;;5046412;28;20512;-58
2023/12/24 03:26:34;;;;;;;10.27;6.20;;;7.90;99.90;;;;;;5044786;28;20025;-58
2023/12/24 03:29:00;;;;;;;11.30;5.82;;;7.90;99.90;;;;;;5046381;28;20024;-59
2023/12/24 03:31:26;;;;;;;11.25;6.03;;;7.90;99.90;;;;;;5027465;28;20282;-58
2023/12/24 03:33:53;;;;;;;9.35;5.65;;;7.90;99.90;;;;;;5046318;28;20633;-59
2023/12/24 03:36:18;;;;;;;11.25;5.85;;;7.90;99.90;;;;;;5045885;28;20021;-59
2023/12/24 03:38:44;;;;;;;8.23;5.18;;;7.90;99.90;;;;;;5033729;28;20026;-59
2023/12/24 03:41:10;;;;;;;8.98;5.60;;;7.90;99.90;;;;;;5053125;28;20056;-59
2023/12/24 03:43:36;;;;;;;16.25;6.43;;;7.90;99.90;;;;;;5052125;28;20067;-59
2023/12/24 03:46:02;;;;;;;11.40;6.07;;;7.90;99.90;;;;;;5053389;28;20017;-59
2023/12/24 03:48:28;;;;;;;14.13;6.53;;;7.90;99.90;;;;;;5052347;28;20421;-59
2023/12/24 03:50:54;;;;;;;12.23;6.90;;;7.90;99.90;;;;;;5053122;28;20118;-59
2023/12/24 03:53:20;;;;;;;17.15;7.13;;;7.90;99.90;;;;;;5053088;28;20100;-59
2023/12/24 03:55:45;;;;;;;14.30;7.95;;;7.90;99.90;;;;;;5052516;28;20029;-58
2023/12/24 03:58:11;;;;;;;19.90;9.15;;;7.90;99.90;;;;;;5035212;28;20028;-58
2023/12/24 04:00:36;;;;;;;21.05;8.68;;;7.90;99.90;;;;;;5034894;28;20237;-59
2023/12/24 04:03:02;;;;;;;19.30;8.77;;;7.90;99.90;;;;;;5053479;28;20024;-59
2023/12/24 04:05:28;;;;;;;21.50;10.00;;;7.90;99.90;;;;;;5045237;28;20029;-58
2023/12/24 04:07:53;;;;;;;26.38;10.65;;;7.90;99.90;;;;;;5053513;28;20032;-58
2023/12/24 04:10:19;;;;;;;16.45;8.77;;;7.90;99.90;;;;;;5053465;28;20021;-59
2023/12/24 04:12:45;;;;;;;26.75;10.43;;;7.90;99.90;;;;;;5053060;28;20183;-60
2023/12/24 04:15:11;;;;;;;22.13;9.50;;;7.90;99.90;;;;;;5053219;28;20102;-59
2023/12/24 04:17:37;;;;;;;21.05;9.10;;;7.90;99.90;;;;;;5052444;28;20025;-59
2023/12/24 04:20:04;;;;;;;24.60;9.85;;;7.90;99.90;;;;;;5053460;28;20039;-58
2023/12/24 04:22:30;;;;;;;25.20;11.20;;;7.90;99.90;;;;;;5035112;28;20074;-59
2023/12/24 04:24:57;;;;;;;18.80;9.75;;;7.90;99.90;;;;;;5053491;28;20425;-59
2023/12/24 04:27:22;;;;;;;19.60;9.27;;;7.90;99.90;;;;;;5046532;28;20030;-59
2023/12/24 04:29:49;;;;;;;17.35;8.88;;;7.90;99.90;;;;;;5042002;28;20045;-58
2023/12/24 04:32:16;;;;;;;21.67;9.52;;;7.90;99.90;;;;;;5031012;28;20066;-59
2023/12/24 04:34:42;;;;;;;18.58;8.73;;;7.90;99.90;;;;;;5053325;28;20428;-58
2023/12/24 04:37:08;;;;;;;18.67;8.93;;;7.90;99.90;;;;;;5035611;28;20017;-58
2023/12/24 04:39:33;;;;;;;15.32;7.53;;;7.90;99.90;;;;;;5053254;28;20111;-58
2023/12/24 04:41:59;;;;;;;21.35;9.13;;;7.90;99.90;;;;;;5053790;28;20461;-58
2023/12/24 04:44:24;;;;;;;20.55;9.10;;;7.90;99.90;;;;;;5053644;28;20033;-60
2023/12/24 04:46:50;;;;;;;15.52;8.00;;;7.90;99.90;;;;;;5037693;28;20498;-58
2023/12/24 04:49:16;;;;;;;18.17;8.57;;;7.90;99.90;;;;;;5052111;28;20017;-59
2023/12/24 04:51:41;;;;;;;19.13;9.00;;;7.90;99.90;;;;;;5032710;28;20100;-59
2023/12/24 04:54:07;;;;;;;26.38;10.57;;;8.00;99.90;;;;;;5050725;28;20466;-59
2023/12/24 04:56:33;;;;;;;18.08;9.55;;;7.90;99.90;;;;;;5049866;28;20214;-59
2023/12/24 04:58:59;;;;;;;27.15;11.30;;;7.90;99.90;;;;;;5050832;28;20021;-58
2023/12/24 05:01:25;;;;;;;27.98;10.88;;;7.90;99.90;;;;;;5032753;28;20533;-58
2023/12/24 05:03:50;;;;;;;27.45;12.07;;;7.90;99.90;;;;;;5034729;28;20029;-58
2023/12/24 05:06:16;;;;;;;33.88;12.48;;;8.00;99.90;;;;;;5035192;28;20078;-58
2023/12/24 05:08:42;;;;;;;34.95;14.07;;;8.00;99.90;;;;;;5031313;28;20036;-58
2023/12/24 05:11:08;;;;;;;30.67;14.45;;;8.00;99.90;;;;;;5030912;28;20022;-58
2023/12/24 05:13:35;;;;;;;33.08;15.55;;;8.00;99.90;;;;;;5030679;28;20029;-58
2023/12/24 05:16:04;;;;;;;36.53;17.27;;;8.00;99.90;;;;;;5030365;28;20589;-58
2023/12/24 05:18:31;;;;;;;50.92;18.23;;;8.00;99.90;;;;;;5030940;28;20152;-58
2023/12/24 05:20:57;;;;;;;40.63;17.60;;;8.00;99.90;;;;;;5013656;28;20029;-58
2023/12/24 05:23:24;;;;;;;51.50;19.75;;;8.00;99.90;;;;;;5030866;28;20028;-58
2023/12/24 05:25:50;;;;;;;63.05;20.60;;;8.00;99.90;;;;;;5030612;28;20032;-58
2023/12/24 05:28:18;;;;;;;59.38;22.38;;;8.00;99.90;;;;;;5029352;28;20030;-59
2023/12/24 05:30:47;;;;;;;59.10;21.58;;;8.00;99.90;;;;;;5029681;28;20025;-58
2023/12/24 05:33:13;;;;;;;63.35;23.63;;;8.00;99.90;;;;;;5030829;28;20032;-59
2023/12/24 05:35:38;;;;;;;60.97;24.35;;;8.00;99.90;;;;;;5030866;28;20391;-58
2023/12/24 05:38:04;;;;;;;59.78;22.23;;;8.00;99.90;;;;;;5030866;28;20032;-57
2023/12/24 05:40:30;;;;;;;70.47;23.65;;;8.00;99.90;;;;;;5013424;28;20030;-58
2023/12/24 05:42:56;;;;;;;56.83;22.17;;;8.00;99.90;;;;;;5031241;28;20029;-58
2023/12/24 05:45:22;;;;;;;60.47;22.40;;;8.00;99.90;;;;;;5012594;28;20483;-58
2023/12/24 05:47:47;;;;;;;56.03;21.90;;;8.00;99.90;;;;;;5030626;28;20045;-58
2023/12/24 05:50:13;;;;;;;62.30;22.05;;;8.00;99.90;;;;;;5030834;28;20021;-57
2023/12/24 05:52:41;;;;;;;54.85;21.38;;;8.00;99.90;;;;;;5031198;28;20172;-58
2023/12/24 05:55:08;;;;;;;52.72;20.95;;;8.00;99.90;;;;;;5028699;28;20533;-58
2023/12/24 05:57:34;;;;;;;63.97;22.85;;;8.10;99.90;;;;;;5030948;28;20389;-58
2023/12/24 05:59:59;;;;;;;56.67;22.02;;;8.00;99.90;;;;;;5029683;28;20025;-58
2023/12/24 06:02:25;;;;;;;55.97;21.80;;;8.10;99.90;;;;;;5030845;28;20497;-58
2023/12/24 06:04:51;;;;;;;58.22;23.17;;;8.10;99.90;;;;;;5029880;28;20021;-58
2023/12/24 06:07:16;;;;;;;64.47;23.30;;;8.10;99.90;;;;;;5030465;28;20533;-57
2023/12/24 06:09:42;;;;;;;48.65;20.52;;;8.10;99.90;;;;;;5028111;28;20037;-57
2023/12/24 06:12:08;;;;;;;56.53;23.45;;;8.10;99.90;;;;;;5013061;28;20041;-58
2023/12/24 06:14:33;;;;;;;69.15;24.95;;;8.10;99.90;;;;;;5031275;28;20483;-57
2023/12/24 06:16:59;;;;;;;45.17;20.90;;;8.10;99.90;;;;;;5030442;28;20029;-57
2023/12/24 06:19:25;;;;;;;59.00;23.90;;;8.10;99.90;;;;;;5030808;28;20025;-58
2023/12/24 06:21:51;;;;;;;62.35;25.83;;;8.10;99.90;;;;;;5031071;28;20029;-58
2023/12/24 06:24:21;;;;;;;70.70;26.80;;;8.10;99.90;;;;;;5030978;28;20491;-58
2023/12/24 06:26:51;;;;;;;50.47;23.35;;;8.00;99.90;;;;;;5029889;28;20484;-58
2023/12/24 06:29:17;;;;;;;49.63;24.00;;;8.10;99.90;;;;;;5031040;28;20021;-58
2023/12/24 06:31:42;;;;;;;54.85;23.55;;;8.10;99.90;;;;;;5030739;28;20033;-58
2023/12/24 06:34:08;;;;;;;63.22;25.73;;;8.10;99.90;;;;;;5030764;28;20071;-58
2023/12/24 06:36:33;;;;;;;66.43;24.33;;;8.10;99.90;;;;;;5031301;28;20103;-57
2023/12/24 06:38:59;;;;;;;53.85;22.35;;;8.10;99.90;;;;;;5030916;28;20022;-56
2023/12/24 06:41:24;;;;;;;55.83;21.25;;;8.10;99.90;;;;;;5030815;28;20040;-57
2023/12/24 06:43:50;;;;;;;49.83;21.80;;;8.10;99.90;;;;;;5031964;28;20061;-57
2023/12/24 06:46:16;;;;;;;50.15;20.23;;;8.10;99.90;;;;;;5030453;28;20418;-57
2023/12/24 06:48:41;;;;;;;44.67;18.70;;;8.10;99.90;;;;;;5031579;28;20482;-58
2023/12/24 06:51:07;;;;;;;39.58;16.35;;;8.20;99.90;;;;;;5030842;28;20025;-58
2023/12/24 06:53:33;;;;;;;31.33;13.95;;;8.20;99.90;;;;;;5031783;28;20394;-58
2023/12/24 06:55:59;;;;;;;31.83;13.43;;;8.20;99.90;;;;;;5022227;28;20021;-58
2023/12/24 06:58:25;;;;;;;28.65;13.13;;;8.20;99.90;;;;;;5030834;28;20079;-58
2023/12/24 07:00:50;;;;;;;27.70;12.80;;;8.20;99.90;;;;;;5029955;28;20030;-58
2023/12/24 07:03:17;;;;;;;18.50;10.70;;;8.20;99.90;;;;;;5030901;28;20052;-58
2023/12/24 07:05:43;;;;;;;17.73;10.52;;;8.20;99.90;;;;;;5031690;28;20032;-58
2023/12/24 07:08:08;;;;;;;23.55;10.57;;;8.20;99.90;;;;;;5012798;28;20030;-58
2023/12/24 07:10:35;;;;;;;18.98;8.82;;;8.20;99.90;;;;;;5031864;28;20494;-58
2023/12/24 07:13:00;;;;;;;22.17;9.25;;;8.20;99.90;;;;;;5030148;28;20021;-58
2023/12/24 07:15:26;;;;;;;20.20;8.45;;;8.20;99.90;;;;;;5012935;28;20414;-58
2023/12/24 07:17:52;;;;;;;18.25;8.02;;;8.20;99.90;;;;;;5030442;28;20206;-58
2023/12/24 07:20:17;;;;;;;16.35;7.65;;;8.30;99.90;;;;;;5031213;28;20057;-58
2023/12/24 07:22:44;;;;;;;14.50;7.18;;;8.30;99.90;;;;;;5032280;28;20021;-58
2023/12/24 07:25:10;;;;;;;14.10;6.88;;;8.30;99.90;;;;;;5030704;28;20023;-58
2023/12/24 07:27:36;;;;;;;9.75;6.50;;;8.30;99.90;;;;;;5030684;28;20457;-58
2023/12/24 07:30:01;;;;;;;10.55;5.47;;;8.30;99.90;;;;;;5027253;28;20216;-58
2023/12/24 07:32:27;;;;;;;15.13;5.82;;;8.30;99.90;;;;;;5031258;28;20021;-58
2023/12/24 07:34:53;;;;;;;11.48;5.72;;;8.30;99.90;;;;;;5032442;28;20025;-58
2023/12/24 07:37:18;;;;;;;8.40;4.90;;;8.30;99.90;;;;;;5029341;28;20033;-58
2023/12/24 07:39:44;;;;;;;10.27;5.43;;;8.30;99.90;;;;;;5030841;28;20030;-58
2023/12/24 07:42:09;;;;;;;8.90;4.93;;;8.40;99.90;;;;;;5031347;28;20028;-58
2023/12/24 07:44:35;;;;;;;9.73;5.47;;;8.40;99.90;;;;;;5014934;28;20028;-59
2023/12/24 07:47:01;;;;;;;10.40;5.38;;;8.40;99.90;;;;;;5030612;28;20029;-58
2023/12/24 07:49:26;;;;;;;9.70;5.10;;;8.40;99.90;;;;;;5030873;28;20029;-58
2023/12/24 07:51:52;;;;;;;8.10;3.85;;;8.50;99.90;;;;;;5032404;28;20025;-58
2023/12/24 07:54:18;;;;;;;8.65;4.65;;;8.50;99.90;;;;;;5031290;28;20033;-58
2023/12/24 07:56:44;;;;;;;6.70;4.32;;;8.50;99.90;;;;;;5032691;28;20025;-58
2023/12/24 07:59:09;;;;;;;8.27;4.22;;;8.50;99.90;;;;;;5027554;28;20025;-58
2023/12/24 08:01:37;;;;;;;5.78;3.55;;;8.50;99.90;;;;;;5025228;28;20018;-58
2023/12/24 08:04:04;;;;;;;6.00;3.92;;;8.50;99.90;;;;;;5025727;28;20104;-58
2023/12/24 08:06:29;;;;;;;8.75;3.85;;;8.60;99.90;;;;;;5004937;28;20037;-57
2023/12/24 08:08:56;;;;;;;5.53;4.07;;;8.60;99.90;;;;;;5025205;28;20345;-57
2023/12/24 08:11:22;;;;;;;6.07;3.67;;;8.60;99.90;;;;;;5025562;28;20489;-57
2023/12/24 08:13:47;;;;;;;8.20;4.03;;;8.60;99.90;;;;;;5025422;28;20029;-57
2023/12/24 08:16:13;;;;;;;6.05;3.85;;;8.60;99.90;;;;;;5025802;28;20057;-57
2023/12/24 08:18:39;;;;;;;7.97;2.83;;;8.60;99.90;;;;;;5027021;28;20284;-58
2023/12/24 08:21:07;;;;;;;6.22;2.80;;;8.60;99.90;;;;;;5010738;28;20035;-58
2023/12/24 08:23:32;;;;;;;7.13;3.05;;;8.60;99.90;;;;;;5032232;28;20044;-57
2023/12/24 08:25:58;;;;;;;6.63;2.83;;;8.70;99.90;;;;;;5035322;28;20029;-58
2023/12/24 08:28:24;;;;;;;3.58;2.40;;;8.70;99.90;;;;;;5035320;28;20057;-57
2023/12/24 08:30:49;;;;;;;4.30;2.60;;;8.70;99.90;;;;;;5037107;28;20025;-57
2023/12/24 08:33:15;;;;;;;4.90;2.60;;;8.70;99.90;;;;;;5035558;28;20048;-58
2023/12/24 08:35:40;;;;;;;3.67;2.40;;;8.70;99.90;;;;;;5037523;28;20029;-58
2023/12/24 08:38:06;;;;;;;6.60;2.72;;;8.70;99.90;;;;;;5032913;28;20028;-57
2023/12/24 08:40:32;;;;;;;4.85;2.70;;;8.80;99.90;;;;;;5036301;28;20478;-57
2023/12/24 08:42:57;;;;;;;3.80;2.20;;;8.80;99.90;;;;;;5030528;28;20036;-57
2023/12/24 08:45:23;;;;;;;5.07;1.85;;;8.80;99.90;;;;;;5031107;28;20478;-57
2023/12/24 08:47:49;;;;;;;3.65;2.20;;;8.80;99.90;;;;;;5034819;28;20032;-57
2023/12/24 08:50:15;;;;;;;3.65;2.33;;;8.80;99.90;;;;;;5033205;28;20049;-58
2023/12/24 08:52:41;;;;;;;4.47;2.60;;;8.90;99.90;;;;;;5037678;28;20017;-57
2023/12/24 08:55:07;;;;;;;2.70;1.92;;;8.90;99.90;;;;;;5035284;28;20398;-58
2023/12/24 08:57:33;;;;;;;3.55;2.53;;;8.90;99.90;;;;;;5036062;28;20033;-57
2023/12/24 08:59:58;;;;;;;5.07;2.47;;;8.90;99.90;;;;;;5018728;28;20037;-57
2023/12/24 09:02:24;;;;;;;3.20;2.50;;;8.90;99.90;;;;;;5017682;28;20129;-58
2023/12/24 09:04:49;;;;;;;3.53;2.28;;;9.00;99.90;;;;;;5035252;28;20151;-57
2023/12/24 09:07:16;;;;;;;3.58;2.22;;;9.00;99.90;;;;;;5029635;28;20108;-57
2023/12/24 09:09:42;;;;;;;2.67;2.30;;;9.00;99.90;;;;;;5037635;28;20026;-58
2023/12/24 09:12:08;;;;;;;5.53;2.22;;;9.00;99.90;;;;;;5025422;28;20360;-58
2023/12/24 09:14:33;;;;;;;4.88;1.88;;;9.00;99.90;;;;;;5036318;28;20045;-58
2023/12/24 09:16:59;;;;;;;3.03;2.20;;;9.10;99.90;;;;;;5033630;28;20052;-57
2023/12/24 09:19:25;;;;;;;4.00;2.53;;;9.10;99.90;;;;;;5035343;28;20025;-58
2023/12/24 09:21:50;;;;;;;3.30;2.47;;;9.10;99.90;;;;;;5035076;28;20108;-58
2023/12/24 09:24:16;;;;;;;5.07;2.70;;;9.20;99.90;;;;;;5035306;28;20060;-58
2023/12/24 09:26:42;;;;;;;3.75;2.40;;;9.10;99.90;;;;;;5034325;28;20036;-57
2023/12/24 09:29:11;;;;;;;5.93;2.55;;;9.20;99.90;;;;;;5017555;28;20387;-58
2023/12/24 09:31:39;;;;;;;3.85;2.28;;;9.20;99.90;;;;;;5037015;28;20022;-58
2023/12/24 09:34:06;;;;;;;8.05;2.72;;;9.30;99.90;;;;;;5035946;28;20025;-57
2023/12/24 09:36:31;;;;;;;4.05;2.60;;;9.20;99.90;;;;;;5034919;28;20024;-57
2023/12/24 09:38:57;;;;;;;4.03;2.72;;;9.20;99.90;;;;;;5034272;28;20022;-57
2023/12/24 09:41:22;;;;;;;6.50;2.90;;;9.30;99.90;;;;;;5032814;28;20391;-57
2023/12/24 09:43:49;;;;;;;2.55;2.10;;;9.30;99.90;;;;;;5038426;28;20375;-57
2023/12/24 09:46:14;;;;;;;8.38;2.97;;;9.30;99.90;;;;;;5035115;28;20083;-57
2023/12/24 09:48:40;;;;;;;4.78;2.47;;;9.40;99.90;;;;;;5017621;28;20029;-57
2023/12/24 09:51:08;;;;;;;2.55;2.22;;;9.40;99.90;;;;;;5035482;28;20030;-57
2023/12/24 09:53:33;;;;;;;4.30;2.83;;;9.40;99.90;;;;;;5036781;28;20530;-57
2023/12/24 09:55:59;;;;;;;5.55;3.05;;;9.40;99.90;;;;;;5036847;28;20086;-56
2023/12/24 09:58:25;;;;;;;3.97;2.90;;;9.40;99.90;;;;;;5035141;28;20865;-58
2023/12/24 10:00:50;;;;;;;4.10;2.90;;;9.40;99.90;;;;;;5037984;28;20102;-58
2023/12/24 10:03:16;;;;;;;4.00;2.88;;;9.40;99.90;;;;;;5035353;28;20383;-57
2023/12/24 10:06:07;;;;;;;3.63;2.80;;;9.40;99.90;;;;;;5017152;28;20041;-57
2023/12/24 10:08:36;;;;;;;3.38;2.67;;;9.40;99.90;;;;;;5018397;28;20026;-57
2023/12/24 10:11:16;;;;;;;4.70;3.25;;;9.40;99.90;;;;;;5019074;28;20037;-57
2023/12/24 10:13:42;;;;;;;4.28;2.90;;;9.40;99.90;;;;;;5037611;28;20029;-58
2023/12/24 10:16:09;;;;;;;5.05;3.03;;;9.40;99.90;;;;;;5035143;28;20117;-58
2023/12/24 10:18:35;;;;;;;2.97;2.67;;;9.40;99.90;;;;;;5018949;28;20043;-57
2023/12/24 10:21:05;;;;;;;4.55;3.00;;;9.40;99.90;;;;;;5019443;28;20027;-57
2023/12/24 10:23:32;;;;;;;6.05;3.42;;;9.40;99.90;;;;;;5036304;28;20416;-57
2023/12/24 10:26:02;;;;;;;5.82;3.70;;;9.50;99.90;;;;;;5037586;28;20033;-57
2023/12/24 10:28:28;;;;;;;4.82;3.40;;;9.50;99.90;;;;;;5035978;28;20108;-58
2023/12/24 10:31:08;;;;;;;3.72;3.10;;;9.50;99.90;;;;;;5038426;28;20566;-58
2023/12/24 10:33:35;;;;;;;4.60;3.35;;;9.50;99.90;;;;;;5036778;28;20021;-58
2023/12/24 10:36:01;;;;;;;5.05;3.30;;;9.50;99.90;;;;;;5036954;28;20378;-58
2023/12/24 10:38:27;;;;;;;4.35;2.70;;;9.50;99.90;;;;;;5035284;28;20029;-58
2023/12/24 10:40:53;;;;;;;4.78;3.20;;;9.60;99.90;;;;;;5038498;28;20540;-58
2023/12/24 10:43:19;;;;;;;4.85;3.00;;;9.60;99.90;;;;;;5029268;28;20049;-58
2023/12/24 10:45:48;;;;;;;3.72;3.10;;;9.60;99.90;;;;;;5037865;28;20529;-58
2023/12/24 10:48:13;;;;;;;5.30;3.30;;;9.60;99.90;;;;;;5031580;28;20025;-58
2023/12/24 10:50:39;;;;;;;4.85;3.05;;;9.60;99.90;;;;;;5037098;28;20033;-57
2023/12/24 10:53:05;;;;;;;6.85;3.20;;;9.70;99.90;;;;;;5033460;28;20467;-57
2023/12/24 10:55:33;;;;;;;6.50;3.38;;;9.70;99.90;;;;;;5035892;28;20057;-57
2023/12/24 10:58:09;;;;;;;4.55;3.33;;;9.70;99.90;;;;;;5033901;28;20475;-57
2023/12/24 11:00:35;;;;;;;4.53;3.08;;;9.70;99.90;;;;;;5036800;28;20037;-57
2023/12/24 11:03:01;;;;;;;4.88;3.50;;;9.70;99.90;;;;;;5037822;28;20037;-57
2023/12/24 11:05:48;;;;;;;7.40;3.45;;;9.70;99.90;;;;;;5035340;28;20509;-57
2023/12/24 11:08:19;;;;;;;4.60;3.15;;;9.80;99.90;;;;;;5028467;28;20079;-57
2023/12/24 11:10:54;;;;;;;4.50;3.03;;;9.70;99.90;;;;;;5037878;28;20085;-58
2023/12/24 11:13:32;;;;;;;10.07;4.05;;;9.70;99.90;;;;;;5035307;28;20079;-58
2023/12/24 11:15:59;;;;;;;7.32;3.50;;;9.70;99.90;;;;;;5032028;28;20039;-58
2023/12/24 11:18:41;;;;;;;8.07;4.05;;;9.70;99.90;;;;;;5035513;28;20664;-57
2023/12/24 11:21:06;;;;;;;4.97;3.75;;;9.70;99.90;;;;;;5033866;28;20029;-58
2023/12/24 11:23:32;;;;;;;11.02;4.43;;;9.70;99.90;;;;;;5036637;28;20550;-58
2023/12/24 11:25:57;;;;;;;7.60;4.18;;;9.80;99.90;;;;;;5037750;28;20033;-58
2023/12/24 11:28:23;;;;;;;6.68;3.83;;;9.80;99.90;;;;;;5030451;28;20415;-59
2023/12/24 11:30:51;;;;;;;8.13;5.10;;;9.80;99.90;;;;;;5038088;28;20067;-58
2023/12/24 11:33:41;;;;;;;12.82;4.45;;;9.80;99.90;;;;;;5035348;28;20040;-58
2023/12/24 11:36:11;;;;;;;7.50;4.18;;;9.90;99.90;;;;;;5033258;28;20191;-58
2023/12/24 11:38:36;;;;;;;7.28;4.40;;;9.90;99.90;;;;;;5036581;28;20025;-58
2023/12/24 11:41:10;;;;;;;7.30;4.60;;;9.90;99.90;;;;;;5037586;28;20031;-58
2023/12/24 11:43:40;;;;;;;8.23;4.93;;;9.90;99.90;;;;;;5017139;28;20502;-58
2023/12/24 11:46:07;;;;;;;6.35;4.40;;;10.00;99.90;;;;;;5035092;28;20029;-58
2023/12/24 11:48:35;;;;;;;5.90;4.65;;;9.90;99.90;;;;;;5036144;28;20040;-58
2023/12/24 11:51:07;;;;;;;7.43;5.50;;;10.00;99.90;;;;;;5037769;28;20025;-58
2023/12/24 11:53:37;;;;;;;6.90;4.95;;;10.00;99.90;;;;;;5034535;28;20033;-58
2023/12/24 11:56:04;;;;;;;7.32;4.55;;;10.00;99.90;;;;;;5026700;28;20029;-58
2023/12/24 11:58:29;;;;;;;9.27;4.82;;;10.00;99.90;;;;;;5027987;28;20042;-58
2023/12/24 12:00:59;;;;;;;5.45;4.53;;;10.00;99.90;;;;;;5031182;28;20017;-58
2023/12/24 12:03:25;;;;;;;9.10;6.47;;;10.10;99.90;;;;;;5026559;28;20087;-57
2023/12/24 12:05:51;;;;;;;4.85;4.30;;;10.00;99.90;;;;;;5012594;28;20340;-58
2023/12/24 12:08:16;;;;;;;7.28;4.65;;;10.00;99.90;;;;;;5025903;28;20036;-58
2023/12/24 12:10:42;;;;;;;6.03;4.05;;;10.00;99.90;;;;;;5028721;28;20075;-58
2023/12/24 12:13:08;;;;;;;6.30;4.63;;;10.00;99.90;;;;;;5030961;28;20104;-58
2023/12/24 12:15:34;;;;;;;6.78;4.82;;;10.10;99.90;;;;;;5030649;28;20033;-58
2023/12/24 12:18:00;;;;;;;7.65;4.85;;;10.10;99.90;;;;;;5029687;28;20151;-58
2023/12/24 12:20:25;;;;;;;5.32;4.53;;;10.10;99.90;;;;;;5031128;28;20017;-58
2023/12/24 12:22:51;;;;;;;6.78;4.53;;;10.10;99.90;;;;;;5026274;28;20104;-55
2023/12/24 12:25:17;;;;;;;5.50;4.50;;;10.10;99.90;;;;;;5030521;28;20029;-58
2023/12/24 12:27:43;;;;;;;5.28;4.65;;;10.10;99.90;;;;;;5011844;28;20402;-58
2023/12/24 12:30:09;;;;;;;4.95;4.05;;;10.10;99.90;;;;;;5029752;28;20383;-58
2023/12/24 12:32:35;;;;;;;9.65;4.53;;;10.10;99.90;;;;;;5023860;28;20376;-57
2023/12/24 12:35:00;;;;;;;6.93;4.90;;;10.10;99.90;;;;;;5030123;28;20025;-57
2023/12/24 12:37:27;;;;;;;5.28;4.65;;;10.20;99.90;;;;;;5027978;28;20013;-57
2023/12/24 12:39:53;;;;;;;9.38;5.55;;;10.10;99.90;;;;;;5009029;28;20032;-56
2023/12/24 12:42:18;;;;;;;9.00;5.20;;;10.20;99.90;;;;;;5026370;28;20097;-57
2023/12/24 12:44:45;;;;;;;7.40;5.50;;;10.20;99.90;;;;;;4994842;28;20448;-56
2023/12/24 12:47:12;;;;;;;6.93;4.82;;;10.10;99.90;;;;;;5027955;28;20293;-57